createdAt,value
2019-04-01T00:01:25.877Z,58.78
2019-04-01T00:03:57.417Z,58.58
2019-04-01T00:06:28.857Z,58.67
2019-04-01T00:09:00.237Z,58.83
2019-04-01T00:11:31.799Z,58.63
2019-04-01T00:14:03.408Z,58.16
2019-04-01T00:16:34.725Z,58.39
2019-04-01T00:19:06.389Z,57.88
2019-04-01T00:21:37.920Z,57.64
2019-04-01T00:24:09.557Z,57.54
2019-04-01T00:26:41.182Z,57.68
2019-04-01T00:29:12.907Z,57.77
2019-04-01T00:31:44.428Z,57.08
2019-04-01T00:34:15.988Z,56.75
2019-04-01T00:36:47.319Z,57.04
2019-04-01T00:39:18.534Z,57.26
2019-04-01T00:42:00.632Z,57.29
2019-04-01T00:44:32.182Z,57.93
2019-04-01T00:47:03.641Z,58.34
2019-04-01T00:49:35.022Z,58.61
2019-04-01T00:52:06.279Z,59.17
2019-04-01T00:54:37.647Z,59.25
2019-04-01T00:57:09.283Z,59.35
2019-04-01T00:59:40.542Z,59.60
2019-04-01T01:02:11.741Z,60.13
2019-04-01T01:04:43.338Z,60.07
2019-04-01T01:07:15.038Z,60.32
2019-04-01T01:09:46.330Z,60.37
2019-04-01T01:12:17.818Z,60.96
2019-04-01T01:14:49.299Z,62.26
2019-04-01T01:17:20.623Z,61.74
2019-04-01T01:19:52.088Z,61.66
2019-04-01T01:22:23.658Z,61.92
2019-04-01T01:24:56.218Z,61.97
2019-04-01T01:27:27.564Z,61.86
2019-04-01T01:29:59.030Z,61.74
2019-04-01T01:32:30.375Z,62.59
2019-04-01T01:35:01.813Z,62.76
2019-04-01T01:37:33.351Z,62.67
2019-04-01T01:40:05.018Z,63.22
2019-04-01T01:42:36.469Z,63.27
2019-04-01T01:45:08.118Z,63.11
2019-04-01T01:47:39.632Z,63.29
2019-04-01T01:50:11.446Z,62.96
2019-04-01T01:52:42.971Z,62.72
2019-04-01T01:55:14.565Z,62.99
2019-04-01T01:57:46.137Z,62.80
2019-04-01T02:00:18.347Z,63.59
2019-04-01T02:02:49.574Z,63.57
2019-04-01T02:05:21.101Z,63.84
2019-04-01T02:07:52.513Z,63.39
2019-04-01T02:10:24.054Z,63.50
2019-04-01T02:12:55.562Z,63.39
2019-04-01T02:15:27.169Z,63.45
2019-04-01T02:17:59.110Z,63.12
2019-04-01T02:20:30.422Z,62.85
2019-04-01T02:23:01.745Z,62.91
2019-04-01T02:25:33.202Z,63.31
2019-04-01T02:28:04.728Z,63.07
2019-04-01T02:30:36.157Z,63.36
2019-04-01T02:33:07.564Z,63.92
2019-04-01T02:35:39.084Z,64.16
2019-04-01T02:38:10.309Z,65.11
2019-04-01T02:40:41.855Z,64.96
2019-04-01T02:43:13.125Z,64.57
2019-04-01T02:45:44.377Z,64.79
2019-04-01T02:48:15.850Z,65.04
2019-04-01T02:50:47.415Z,65.22
2019-04-01T02:53:18.659Z,65.03
2019-04-01T02:55:50.068Z,65.66
2019-04-01T02:58:21.475Z,65.48
2019-04-01T03:00:53.150Z,65.49
2019-04-01T03:03:24.395Z,65.86
2019-04-01T03:05:56.068Z,66.23
2019-04-01T03:08:27.533Z,66.47
2019-04-01T03:10:59.107Z,66.50
2019-04-01T03:13:30.692Z,66.27
2019-04-01T03:16:02.298Z,66.04
2019-04-01T03:18:33.733Z,65.74
2019-04-01T03:21:05.203Z,65.50
2019-04-01T03:23:36.503Z,65.52
2019-04-01T03:26:08.714Z,65.39
2019-04-01T03:28:40.457Z,65.16
2019-04-01T03:31:13.038Z,64.82
2019-04-01T03:33:44.762Z,64.84
2019-04-01T03:36:16.136Z,65.05
2019-04-01T03:38:47.472Z,64.71
2019-04-01T03:41:19.814Z,64.78
2019-04-01T03:43:51.329Z,64.88
2019-04-01T03:46:22.951Z,65.76
2019-04-01T03:48:54.423Z,65.08
2019-04-01T03:51:25.812Z,65.17
2019-04-01T03:53:57.652Z,65.02
2019-04-01T03:56:28.990Z,65.13
2019-04-01T03:59:00.572Z,64.94
2019-04-01T04:01:31.975Z,64.88
2019-04-01T04:04:03.359Z,64.85
2019-04-01T04:06:35.078Z,65.03
2019-04-01T04:09:07.585Z,65.42
2019-04-01T04:11:38.812Z,65.45
2019-04-01T04:14:10.373Z,65.92
2019-04-01T04:16:41.579Z,65.80
2019-04-01T04:19:13.018Z,66.25
2019-04-01T04:21:44.538Z,66.04
2019-04-01T04:24:15.754Z,66.00
2019-04-01T04:26:47.314Z,66.42
2019-04-01T04:29:18.767Z,66.13
2019-04-01T04:31:50.210Z,66.47
2019-04-01T04:34:21.711Z,66.46
2019-04-01T04:36:53.600Z,66.70
2019-04-01T04:39:25.443Z,66.58
2019-04-01T04:41:57.155Z,67.38
2019-04-01T04:44:28.658Z,67.80
2019-04-01T04:47:00.159Z,67.21
2019-04-01T04:49:31.583Z,67.32
2019-04-01T04:52:04.627Z,66.94
2019-04-01T04:54:37.135Z,67.49
2019-04-01T04:57:08.424Z,68.36
2019-04-01T04:59:39.810Z,68.52
2019-04-01T05:02:11.403Z,67.82
2019-04-01T05:04:43.047Z,67.79
2019-04-01T05:07:14.527Z,68.32
2019-04-01T05:09:45.878Z,67.84
2019-04-01T05:12:17.100Z,68.23
2019-04-01T05:14:48.751Z,67.46
2019-04-01T05:17:20.053Z,67.41
2019-04-01T05:19:51.600Z,66.70
2019-04-01T05:22:25.357Z,65.27
2019-04-01T05:24:58.053Z,63.88
2019-04-01T05:27:30.899Z,61.71
2019-04-01T05:30:03.883Z,60.10
2019-04-01T05:32:37.495Z,57.79
2019-04-01T05:35:09.113Z,55.94
2019-04-01T05:37:40.873Z,54.16
2019-04-01T05:40:12.374Z,52.95
2019-04-01T05:42:43.864Z,54.50
2019-04-01T05:45:15.595Z,54.57
2019-04-01T05:47:49.888Z,56.14
2019-04-01T05:50:21.281Z,54.15
2019-04-01T05:52:52.846Z,53.69
2019-04-01T05:55:26.050Z,54.57
2019-04-01T05:57:57.809Z,54.12
2019-04-01T06:00:48.499Z,54.73
2019-04-01T06:03:20.081Z,54.50
2019-04-01T06:05:51.541Z,54.17
2019-04-01T06:08:23.030Z,53.67
2019-04-01T06:10:54.702Z,52.71
2019-04-01T06:13:26.330Z,52.77
2019-04-01T06:15:58.545Z,50.54
2019-04-01T06:18:30.085Z,51.04
2019-04-01T06:21:01.841Z,51.40
2019-04-01T06:23:33.450Z,51.20
2019-04-01T06:26:05.012Z,50.15
2019-04-01T06:28:36.457Z,49.83
2019-04-01T06:31:08.284Z,49.70
2019-04-01T06:33:39.665Z,49.11
2019-04-01T06:36:11.466Z,48.68
2019-04-01T06:38:43.188Z,47.33
2019-04-01T06:41:14.442Z,46.98
2019-04-01T06:43:45.989Z,46.37
2019-04-01T06:46:17.233Z,45.59
2019-04-01T06:48:48.521Z,45.93
2019-04-01T06:51:19.831Z,46.55
2019-04-01T06:53:52.695Z,43.12
2019-04-01T06:56:23.960Z,43.13
2019-04-01T06:58:55.503Z,44.25
2019-04-01T07:01:26.754Z,43.03
2019-04-01T07:03:57.871Z,43.77
2019-04-01T07:06:28.922Z,44.61
2019-04-01T07:09:00.196Z,44.58
2019-04-01T07:11:31.485Z,44.77
2019-04-01T07:14:02.782Z,42.63
2019-04-01T07:16:34.073Z,43.62
2019-04-01T07:19:05.463Z,42.28
2019-04-01T07:21:36.871Z,40.98
2019-04-01T07:24:07.875Z,41.72
2019-04-01T07:26:38.953Z,42.12
2019-04-01T07:29:10.281Z,41.31
2019-04-01T07:31:41.887Z,40.82
2019-04-01T07:34:12.921Z,39.35
2019-04-01T07:36:44.146Z,39.79
2019-04-01T07:39:15.222Z,39.06
2019-04-01T07:41:46.434Z,38.45
2019-04-01T07:44:17.767Z,38.60
2019-04-01T07:46:49.105Z,38.60
2019-04-01T07:49:20.447Z,37.03
2019-04-01T07:51:51.782Z,37.11
2019-04-01T07:54:23.028Z,37.11
2019-04-01T07:56:54.511Z,37.59
2019-04-01T07:59:25.634Z,37.59
2019-04-01T08:01:57.212Z,35.84
2019-04-01T08:04:28.415Z,35.48
2019-04-01T08:06:59.767Z,35.41
2019-04-01T08:09:31.269Z,35.37
2019-04-01T08:12:02.647Z,34.41
2019-04-01T08:14:34.007Z,33.61
2019-04-01T08:17:05.330Z,34.75
2019-04-01T08:19:37.384Z,34.54
2019-04-01T08:22:08.619Z,33.84
2019-04-01T08:24:39.732Z,33.75
2019-04-01T08:27:11.174Z,33.75
2019-04-01T08:29:42.641Z,32.84
2019-04-01T08:32:14.194Z,32.84
2019-04-01T08:34:45.725Z,32.46
2019-04-01T08:37:17.201Z,33.43
2019-04-01T08:39:48.340Z,31.47
2019-04-01T08:42:19.538Z,33.15
2019-04-01T08:44:50.920Z,32.61
2019-04-01T08:47:22.266Z,30.83
2019-04-01T08:49:53.632Z,31.05
2019-04-01T08:52:24.747Z,31.13
2019-04-01T08:54:56.056Z,30.96
2019-04-01T08:57:27.294Z,31.12
2019-04-01T08:59:58.613Z,30.21
2019-04-01T09:02:29.770Z,29.35
2019-04-01T09:05:01.052Z,30.16
2019-04-01T09:07:32.091Z,29.52
2019-04-01T09:10:03.276Z,28.58
2019-04-01T09:12:34.390Z,28.24
2019-04-01T09:15:06.250Z,28.47
2019-04-01T09:17:40.331Z,27.92
2019-04-01T09:20:11.676Z,28.34
2019-04-01T09:22:42.680Z,29.21
2019-04-01T09:25:13.945Z,28.41
2019-04-01T09:27:45.397Z,28.61
2019-04-01T09:30:18.640Z,28.38
2019-04-01T09:32:49.852Z,28.07
2019-04-01T09:35:21.365Z,28.34
2019-04-01T09:37:52.739Z,28.88
2019-04-01T09:40:24.140Z,28.77
2019-04-01T09:42:55.533Z,26.96
2019-04-01T09:45:27.089Z,27.34
2019-04-01T09:47:58.496Z,27.02
2019-04-01T09:50:29.760Z,27.55
2019-04-01T09:53:00.955Z,28.21
2019-04-01T09:55:32.291Z,27.38
2019-04-01T09:58:03.303Z,26.30
2019-04-01T10:00:34.521Z,27.05
2019-04-01T10:03:05.662Z,25.53
2019-04-01T10:05:37.045Z,24.69
2019-04-01T10:08:08.302Z,25.65
2019-04-01T10:10:39.362Z,23.93
2019-04-01T10:13:10.555Z,20.96
2019-04-01T10:15:41.991Z,21.86
2019-04-01T10:18:13.031Z,21.96
2019-04-01T10:20:44.180Z,21.96
2019-04-01T10:23:15.149Z,22.40
2019-04-01T10:25:46.410Z,21.04
2019-04-01T10:28:17.672Z,20.52
2019-04-01T10:30:48.823Z,21.36
2019-04-01T10:33:19.947Z,22.22
2019-04-01T10:35:51.195Z,21.61
2019-04-01T10:38:22.431Z,22.59
2019-04-01T10:40:53.517Z,22.69
2019-04-01T10:43:24.593Z,23.12
2019-04-01T10:45:55.866Z,23.32
2019-04-01T10:48:27.218Z,22.81
2019-04-01T10:53:28.417Z,22.85
2019-04-01T10:55:59.707Z,22.29
2019-04-01T10:58:31.409Z,22.27
2019-04-01T11:01:02.919Z,22.59
2019-04-01T11:03:34.400Z,23.23
2019-04-01T11:06:06.026Z,23.55
2019-04-01T11:08:37.313Z,23.58
2019-04-01T11:11:08.469Z,23.37
2019-04-01T11:13:39.909Z,23.73
2019-04-01T11:16:11.388Z,23.06
2019-04-01T11:18:42.437Z,22.40
2019-04-01T11:21:13.705Z,22.82
2019-04-01T11:23:45.150Z,23.06
2019-04-01T11:26:17.895Z,23.07
2019-04-01T11:28:49.233Z,24.25
2019-04-01T11:31:20.467Z,23.17
2019-04-01T11:33:51.537Z,23.95
2019-04-01T11:36:23.349Z,23.70
2019-04-01T11:38:54.904Z,22.67
2019-04-01T11:41:26.245Z,23.40
2019-04-01T11:43:57.477Z,23.38
2019-04-01T11:46:29.049Z,23.08
2019-04-01T11:49:00.376Z,22.45
2019-04-01T11:51:33.708Z,22.53
2019-04-01T11:54:07.979Z,22.48
2019-04-01T11:56:37.347Z,22.11
2019-04-01T11:59:08.793Z,22.21
2019-04-01T12:01:40.209Z,22.43
2019-04-01T12:04:11.537Z,22.87
2019-04-01T12:06:42.739Z,22.94
2019-04-01T12:09:13.917Z,22.97
2019-04-01T12:11:45.178Z,23.95
2019-04-01T12:14:16.569Z,24.23
2019-04-01T12:16:47.870Z,24.33
2019-04-01T12:19:19.040Z,23.84
2019-04-01T12:21:50.154Z,23.95
2019-04-01T12:24:21.214Z,24.29
2019-04-01T12:26:52.248Z,24.25
2019-04-01T12:29:23.340Z,24.04
2019-04-01T12:31:54.360Z,23.78
2019-04-01T12:34:25.556Z,24.10
2019-04-01T12:36:56.860Z,23.65
2019-04-01T12:39:28.093Z,23.29
2019-04-01T12:41:59.888Z,23.42
2019-04-01T12:44:31.334Z,23.64
2019-04-01T12:47:02.671Z,23.84
2019-04-01T12:49:33.868Z,24.60
2019-04-01T12:52:05.157Z,24.27
2019-04-01T12:54:36.255Z,24.76
2019-04-01T12:57:07.510Z,24.23
2019-04-01T12:59:38.555Z,23.39
2019-04-01T13:02:09.989Z,23.86
2019-04-01T13:04:41.239Z,24.04
2019-04-01T13:07:12.584Z,24.34
2019-04-01T13:09:43.467Z,24.26
2019-04-01T13:12:14.411Z,24.45
2019-04-01T13:14:45.294Z,24.35
2019-04-01T13:17:16.526Z,24.24
2019-04-01T13:19:47.692Z,24.39
2019-04-01T13:22:19.127Z,25.01
2019-04-01T13:24:50.301Z,24.64
2019-04-01T13:27:21.662Z,24.52
2019-04-01T13:29:52.941Z,23.78
2019-04-01T13:32:24.278Z,23.71
2019-04-01T13:34:55.346Z,23.87
2019-04-01T13:37:26.441Z,23.92
2019-04-01T13:39:57.617Z,23.51
2019-04-01T13:42:28.785Z,23.96
2019-04-01T13:45:01.811Z,24.07
2019-04-01T13:47:32.609Z,24.10
2019-04-01T13:50:04.052Z,24.33
2019-04-01T13:52:35.137Z,24.65
2019-04-01T13:55:06.400Z,25.12
2019-04-01T13:57:37.661Z,24.78
2019-04-01T14:00:09.471Z,24.84
2019-04-01T14:02:40.566Z,25.14
2019-04-01T14:05:11.829Z,25.33
2019-04-01T14:07:42.813Z,25.20
2019-04-01T14:10:14.479Z,24.73
2019-04-01T14:12:45.566Z,24.47
2019-04-01T14:15:16.764Z,24.39
2019-04-01T14:17:47.836Z,24.29
2019-04-01T14:20:19.375Z,25.07
2019-04-01T14:22:53.577Z,25.74
2019-04-01T14:25:23.700Z,25.64
2019-04-01T14:27:54.932Z,25.90
2019-04-01T14:30:26.552Z,26.00
2019-04-01T14:32:57.797Z,26.02
2019-04-01T14:35:28.910Z,25.52
2019-04-01T14:38:00.266Z,25.85
2019-04-01T14:40:32.735Z,26.41
2019-04-01T14:43:03.912Z,26.98
2019-04-01T14:45:35.494Z,26.63
2019-04-01T14:48:08.582Z,26.16
2019-04-01T14:50:39.827Z,26.11
2019-04-01T14:53:11.007Z,26.15
2019-04-01T14:55:42.255Z,26.37
2019-04-01T14:58:13.644Z,26.19
2019-04-01T15:00:44.590Z,26.40
2019-04-01T15:03:16.101Z,26.69
2019-04-01T15:05:48.982Z,27.03
2019-04-01T15:08:20.104Z,27.25
2019-04-01T15:10:51.452Z,26.93
2019-04-01T15:13:22.651Z,26.82
2019-04-01T15:15:53.672Z,27.04
2019-04-01T15:18:24.706Z,27.10
2019-04-01T15:20:55.776Z,26.88
2019-04-01T15:23:27.462Z,27.20
2019-04-01T15:25:58.978Z,27.54
2019-04-01T15:28:30.575Z,27.92
2019-04-01T15:31:02.649Z,27.85
2019-04-01T15:33:33.941Z,27.49
2019-04-01T15:36:05.397Z,28.23
2019-04-01T15:38:36.607Z,28.24
2019-04-01T15:41:07.580Z,28.18
2019-04-01T15:43:38.606Z,28.51
2019-04-01T15:46:12.949Z,28.25
2019-04-01T15:48:43.848Z,28.55
2019-04-01T15:51:15.209Z,28.92
2019-04-01T15:53:44.375Z,29.00
2019-04-01T15:56:15.413Z,29.00
2019-04-01T15:58:46.627Z,29.32
2019-04-01T16:01:17.810Z,29.52
2019-04-01T16:03:49.220Z,29.56
2019-04-01T16:06:20.412Z,29.76
2019-04-01T16:08:51.673Z,29.98
2019-04-01T16:11:23.249Z,30.05
2019-04-01T16:13:55.992Z,30.23
2019-04-01T16:16:27.161Z,30.38
2019-04-01T16:18:59.263Z,30.38
2019-04-01T16:21:31.508Z,29.95
2019-04-01T16:24:02.718Z,30.49
2019-04-01T16:26:33.651Z,30.38
2019-04-01T16:29:04.746Z,30.41
2019-04-01T16:31:35.650Z,30.65
2019-04-01T16:34:06.538Z,30.79
2019-04-01T16:36:37.397Z,30.85
2019-04-01T16:39:10.441Z,30.97
2019-04-01T16:41:41.570Z,31.34
2019-04-01T16:44:12.563Z,31.12
2019-04-01T16:46:43.898Z,31.49
2019-04-01T16:49:15.118Z,31.51
2019-04-01T16:51:46.493Z,31.77
2019-04-01T16:54:17.595Z,31.71
2019-04-01T16:56:48.749Z,31.98
2019-04-01T16:59:19.767Z,31.86
2019-04-01T17:01:51.378Z,31.84
2019-04-01T17:04:23.846Z,32.39
2019-04-01T17:06:55.007Z,32.08
2019-04-01T17:09:26.211Z,32.25
2019-04-01T17:11:58.988Z,32.58
2019-04-01T17:14:30.324Z,32.38
2019-04-01T17:17:01.309Z,32.38
2019-04-01T17:19:32.529Z,32.31
2019-04-01T17:22:03.827Z,32.46
2019-04-01T17:24:35.001Z,33.07
2019-04-01T17:27:14.322Z,32.70
2019-04-01T17:29:46.911Z,32.75
2019-04-01T17:32:18.212Z,32.75
2019-04-01T17:34:49.574Z,32.60
2019-04-01T17:37:20.624Z,32.73
2019-04-01T17:39:51.720Z,32.73
2019-04-01T17:42:22.882Z,32.72
2019-04-01T17:44:57.240Z,32.31
2019-04-01T17:47:28.308Z,32.48
2019-04-01T17:50:00.233Z,32.48
2019-04-01T17:52:32.380Z,32.61
2019-04-01T17:55:04.583Z,32.61
2019-04-01T17:57:35.564Z,32.05
2019-04-01T18:00:12.265Z,32.04
2019-04-01T18:02:44.077Z,32.17
2019-04-01T18:05:17.664Z,32.17
2019-04-01T18:07:49.808Z,32.09
2019-04-01T18:10:20.979Z,32.10
2019-04-01T18:12:52.456Z,31.92
2019-04-01T18:15:23.871Z,32.08
2019-04-01T18:17:54.965Z,32.21
2019-04-01T18:20:27.784Z,32.38
2019-04-01T18:22:58.722Z,32.38
2019-04-01T18:25:29.999Z,32.29
2019-04-01T18:28:01.326Z,32.89
2019-04-01T18:30:35.135Z,33.18
2019-04-01T18:33:06.335Z,32.84
2019-04-01T18:35:37.622Z,32.66
2019-04-01T18:38:08.631Z,32.66
2019-04-01T18:40:39.635Z,33.33
2019-04-01T18:43:10.791Z,33.33
2019-04-01T18:45:42.315Z,33.69
2019-04-01T18:48:14.819Z,33.69
2019-04-01T18:50:46.097Z,34.12
2019-04-01T18:53:17.405Z,34.30
2019-04-01T18:55:48.311Z,35.13
2019-04-01T18:58:19.162Z,35.76
2019-04-01T19:00:50.370Z,34.82
2019-04-01T19:03:24.055Z,34.47
2019-04-01T19:05:54.412Z,36.35
2019-04-01T19:08:25.573Z,36.35
2019-04-01T19:11:02.514Z,34.22
2019-04-01T19:13:29.368Z,35.16
2019-04-01T19:16:01.637Z,35.39
2019-04-01T19:18:33.460Z,34.09
2019-04-01T19:21:06.009Z,34.40
2019-04-01T19:23:37.202Z,34.88
2019-04-01T19:26:10.142Z,35.03
2019-04-01T19:28:41.193Z,36.92
2019-04-01T19:31:14.327Z,35.62
2019-04-01T19:33:45.566Z,37.46
2019-04-01T19:36:16.929Z,35.61
2019-04-01T19:38:48.119Z,35.34
2019-04-01T19:41:19.521Z,35.07
2019-04-01T19:43:51.590Z,37.36
2019-04-01T19:46:23.083Z,36.88
2019-04-01T19:48:54.317Z,35.91
2019-04-01T19:51:25.510Z,36.18
2019-04-01T19:53:56.771Z,38.03
2019-04-01T19:56:27.898Z,37.02
2019-04-01T19:58:59.450Z,35.98
2019-04-01T20:01:30.641Z,36.10
2019-04-01T20:04:01.883Z,37.07
2019-04-01T20:06:33.097Z,36.16
2019-04-01T20:09:06.180Z,35.94
2019-04-01T20:11:37.361Z,35.87
2019-04-01T20:14:08.568Z,35.70
2019-04-01T20:16:41.102Z,35.71
2019-04-01T20:19:12.472Z,35.87
2019-04-01T20:21:43.531Z,35.88
2019-04-01T20:24:14.970Z,35.70
2019-04-01T20:26:46.214Z,35.92
2019-04-01T20:29:18.211Z,35.72
2019-04-01T20:31:49.299Z,35.78
2019-04-01T20:34:22.401Z,35.82
2019-04-01T20:36:53.116Z,35.80
2019-04-01T20:39:25.277Z,35.72
2019-04-01T20:41:56.757Z,35.70
2019-04-01T20:44:27.900Z,35.53
2019-04-01T20:46:58.966Z,35.52
2019-04-01T20:49:30.275Z,35.47
2019-04-01T20:52:01.650Z,35.60
2019-04-01T20:54:32.766Z,35.60
2019-04-01T20:57:05.219Z,35.25
2019-04-01T20:59:36.528Z,35.59
2019-04-01T21:02:07.674Z,35.38
2019-04-01T21:04:38.929Z,35.14
2019-04-01T21:07:10.177Z,35.08
2019-04-01T21:09:41.026Z,34.97
2019-04-01T21:12:12.097Z,34.93
2019-04-01T21:14:43.154Z,35.06
2019-04-01T21:17:14.471Z,35.15
2019-04-01T21:19:45.593Z,35.14
2019-04-01T21:22:16.672Z,35.13
2019-04-01T21:24:47.913Z,35.16
2019-04-01T21:27:19.090Z,35.14
2019-04-01T21:29:50.228Z,35.51
2019-04-01T21:32:22.360Z,36.83
2019-04-01T21:34:54.039Z,37.68
2019-04-01T21:37:25.252Z,38.40
2019-04-01T21:39:56.378Z,39.17
2019-04-01T21:42:27.580Z,39.55
2019-04-01T21:44:59.019Z,40.00
2019-04-01T21:47:29.902Z,40.27
2019-04-01T21:50:01.109Z,40.94
2019-04-01T21:52:31.975Z,41.16
2019-04-01T21:55:03.265Z,41.23
2019-04-01T21:57:34.164Z,41.75
2019-04-01T22:00:07.383Z,41.85
2019-04-01T22:02:40.821Z,42.25
2019-04-01T22:05:12.534Z,42.87
2019-04-01T22:07:44.091Z,43.06
2019-04-01T22:10:15.476Z,43.08
2019-04-01T22:12:46.827Z,43.28
2019-04-01T22:15:18.835Z,43.87
2019-04-01T22:17:50.218Z,43.65
2019-04-01T22:20:21.718Z,44.11
2019-04-01T22:22:53.326Z,44.30
2019-04-01T22:25:24.701Z,45.16
2019-04-01T22:27:56.228Z,45.25
2019-04-01T22:30:27.939Z,45.42
2019-04-01T22:32:59.358Z,45.86
2019-04-01T22:35:38.453Z,45.66
2019-04-01T22:38:06.200Z,45.70
2019-04-01T22:40:38.010Z,45.59
2019-04-01T22:43:09.371Z,45.40
2019-04-01T22:45:40.785Z,45.35
2019-04-01T22:48:12.028Z,45.49
2019-04-01T22:50:43.194Z,45.57
2019-04-01T22:53:14.684Z,45.87
2019-04-01T22:55:46.284Z,46.02
2019-04-01T22:58:17.771Z,46.17
2019-04-01T23:00:49.066Z,46.31
2019-04-01T23:03:20.286Z,47.19
2019-04-01T23:05:51.623Z,46.72
2019-04-01T23:08:22.903Z,46.46
2019-04-01T23:10:54.316Z,47.24
2019-04-01T23:13:25.591Z,47.30
2019-04-01T23:15:56.947Z,47.19
2019-04-01T23:18:28.091Z,47.77
2019-04-01T23:20:59.255Z,47.74
2019-04-01T23:23:30.630Z,47.34
2019-04-01T23:26:01.897Z,47.91
2019-04-01T23:28:33.301Z,48.08
2019-04-01T23:31:04.771Z,47.82
2019-04-01T23:33:36.252Z,48.33
2019-04-01T23:36:07.718Z,48.16
2019-04-01T23:38:40.113Z,48.11
2019-04-01T23:41:11.698Z,47.41
2019-04-01T23:43:43.121Z,47.93
2019-04-01T23:46:14.491Z,47.94
2019-04-01T23:48:45.957Z,48.09
2019-04-01T23:51:17.254Z,48.25
2019-04-01T23:53:48.520Z,48.50
2019-04-01T23:56:20.076Z,48.26
2019-04-01T23:58:51.627Z,48.48
